createdAt,value
2023-08-21T00:03:16.718Z,99.91
2023-08-21T00:13:20.102Z,98.62
2023-08-21T00:23:24.493Z,100.00
2023-08-21T00:33:27.470Z,100.00
2023-08-21T00:43:31.914Z,100.00
2023-08-21T00:53:35.402Z,100.00
2023-08-21T01:03:39.763Z,100.00
2023-08-21T01:13:54.802Z,100.00
2023-08-21T01:23:59.215Z,100.00
2023-08-21T01:34:06.520Z,100.00
2023-08-21T01:44:10.892Z,100.00
2023-08-21T01:54:13.952Z,100.00
2023-08-21T02:04:18.416Z,100.00
2023-08-21T02:14:21.529Z,100.00
2023-08-21T02:24:25.883Z,100.00
2023-08-21T02:34:28.959Z,100.00
2023-08-21T02:44:33.327Z,100.00
2023-08-21T02:54:36.292Z,100.00
2023-08-21T03:04:40.767Z,100.00
2023-08-21T03:14:44.009Z,100.00
2023-08-21T03:24:48.369Z,100.00
2023-08-21T03:34:51.493Z,100.00
2023-08-21T03:44:57.541Z,100.00
2023-08-21T03:55:01.211Z,100.00
2023-08-21T04:05:06.900Z,100.00
2023-08-21T04:15:11.327Z,100.00
2023-08-21T04:25:15.574Z,100.00
2023-08-21T04:35:18.669Z,100.00
2023-08-21T04:45:23.115Z,100.00
2023-08-21T04:55:26.323Z,100.00
2023-08-21T05:05:30.865Z,100.00
2023-08-21T05:15:34.171Z,100.00
2023-08-21T05:25:39.989Z,100.00
2023-08-21T05:35:43.663Z,100.00
2023-08-21T05:45:49.076Z,100.00
2023-08-21T05:55:52.344Z,100.00
2023-08-21T06:05:56.798Z,100.00
2023-08-21T06:15:59.921Z,100.00
2023-08-21T06:26:05.923Z,100.00
2023-08-21T06:36:09.053Z,100.00
2023-08-21T06:46:13.552Z,100.00
2023-08-21T06:56:18.659Z,100.00
2023-08-21T07:06:23.016Z,100.00
2023-08-21T07:16:27.582Z,100.00
2023-08-21T07:26:32.271Z,98.10
2023-08-21T07:36:35.621Z,92.38
2023-08-21T07:46:40.049Z,90.39
2023-08-21T07:56:43.075Z,89.76
2023-08-21T08:06:47.497Z,85.73
2023-08-21T08:16:50.481Z,82.60
2023-08-21T08:26:55.257Z,79.66
2023-08-21T08:36:58.194Z,78.60
2023-08-21T08:47:03.278Z,74.31
2023-08-21T08:57:06.576Z,67.96
2023-08-21T09:07:12.174Z,68.50
2023-08-21T09:17:15.994Z,68.92
2023-08-21T09:27:20.853Z,67.88
2023-08-21T09:37:30.806Z,67.99
2023-08-21T09:47:36.154Z,68.38
2023-08-21T09:57:39.721Z,66.08
2023-08-21T10:07:46.221Z,65.90
2023-08-21T10:17:49.271Z,65.16
2023-08-21T10:27:55.223Z,62.90
2023-08-21T10:38:12.554Z,57.04
2023-08-21T10:48:16.900Z,61.25
2023-08-21T10:58:19.906Z,59.56
2023-08-21T11:08:24.668Z,59.13
2023-08-21T11:18:33.204Z,57.83
2023-08-21T11:39:06.333Z,56.20
2023-08-21T11:49:11.879Z,57.98
2023-08-21T11:59:24.738Z,55.99
2023-08-21T12:09:29.257Z,56.82
2023-08-21T12:19:34.822Z,55.15
2023-08-21T12:29:47.759Z,54.09
2023-08-21T12:39:51.830Z,53.51
2023-08-21T12:50:04.618Z,55.14
2023-08-21T13:00:12.776Z,53.98
2023-08-21T13:10:18.725Z,51.34
2023-08-21T13:20:24.637Z,50.13
2023-08-21T13:30:34.274Z,50.23
2023-08-21T13:40:37.805Z,47.01
2023-08-21T13:50:51.447Z,46.79
2023-08-21T14:00:54.889Z,47.74
2023-08-21T14:11:04.278Z,49.79
2023-08-21T14:21:14.811Z,44.90
2023-08-21T14:31:25.260Z,43.51
2023-08-21T14:41:31.882Z,38.78
2023-08-21T14:51:41.320Z,40.77
2023-08-21T15:01:48.979Z,39.00
2023-08-21T15:12:00.231Z,39.68
2023-08-21T15:22:04.524Z,40.36
2023-08-21T15:32:17.362Z,42.61
2023-08-21T15:42:21.041Z,42.93
2023-08-21T15:52:40.721Z,41.69
2023-08-21T16:02:44.839Z,43.00
2023-08-21T16:12:49.453Z,43.92
2023-08-21T16:22:54.326Z,47.51
2023-08-21T16:33:05.843Z,46.61
2023-08-21T16:43:16.748Z,47.50
2023-08-21T16:53:27.856Z,50.33
2023-08-21T17:03:34.584Z,52.18
2023-08-21T17:13:46.461Z,52.20
2023-08-21T17:23:49.598Z,52.72
2023-08-21T17:34:00.567Z,54.82
2023-08-21T17:44:07.416Z,59.24
2023-08-21T17:54:18.989Z,60.76
2023-08-21T18:04:22.988Z,64.03
2023-08-21T18:14:32.849Z,64.86
2023-08-21T18:24:39.559Z,66.75
2023-08-21T18:34:48.827Z,67.28
2023-08-21T18:44:58.473Z,68.36
2023-08-21T18:55:03.694Z,70.35
2023-08-21T19:05:07.750Z,72.67
2023-08-21T19:15:12.886Z,73.87
2023-08-21T19:25:16.024Z,74.82
2023-08-21T19:35:20.660Z,75.53
2023-08-21T19:45:23.697Z,76.77
2023-08-21T19:55:28.352Z,78.81
2023-08-21T20:05:31.592Z,82.02
2023-08-21T20:15:36.432Z,82.80
2023-08-21T20:25:39.512Z,84.67
2023-08-21T20:35:43.948Z,86.13
2023-08-21T20:45:47.208Z,86.60
2023-08-21T20:55:51.553Z,88.29
2023-08-21T21:05:55.512Z,89.92
2023-08-21T21:15:59.666Z,92.20
2023-08-21T21:26:03.721Z,93.71
2023-08-21T21:36:09.282Z,95.44
2023-08-21T21:46:26.415Z,98.02
2023-08-21T21:56:31.157Z,98.76
2023-08-21T22:06:39.861Z,100.00
2023-08-21T22:16:44.206Z,100.00
2023-08-21T22:26:47.226Z,100.00
2023-08-21T22:36:54.331Z,100.00
2023-08-21T22:46:57.327Z,100.00
2023-08-21T22:57:02.020Z,100.00
2023-08-21T23:07:05.532Z,100.00
2023-08-21T23:17:09.941Z,100.00
2023-08-21T23:27:12.913Z,100.00
2023-08-21T23:37:17.526Z,100.00
2023-08-21T23:47:20.522Z,100.00
2023-08-21T23:57:24.960Z,100.00
